Time;durP1;ratioP1;P1;durP2;ratioP2;P2;SDS_P1;SDS_P2;PMS_P1;PMS_P2;Temp;Humidity;BMP_temperature;BMP_pressure;BME280_temperature;BME280_humidity;BME280_pressure;Samples;Min_cycle;Max_cycle;Signal;HPM_P1;HPM_P2
2021/11/16 00:00:17;;;;;;;87.17;40.33;;;;;;;5.84;100.00;99620.03;5029720;28;20033;-56
2021/11/16 00:02:43;;;;;;;100.70;43.20;;;;;;;5.93;100.00;99616.81;5034284;28;20455;-56
2021/11/16 00:05:09;;;;;;;93.37;41.80;;;;;;;5.84;100.00;99611.53;5031332;28;20025;-57
2021/11/16 00:07:35;;;;;;;96.73;43.50;;;;;;;5.85;100.00;99616.66;5036932;28;20043;-55
2021/11/16 00:10:00;;;;;;;91.43;40.87;;;;;;;5.82;100.00;99620.81;5032773;28;20029;-56
2021/11/16 00:12:26;;;;;;;98.30;45.93;;;;;;;5.77;100.00;99622.47;5031495;28;20123;-61
2021/11/16 00:14:53;;;;;;;88.33;43.50;;;;;;;5.78;100.00;99621.59;5031976;28;20463;-57
2021/11/16 00:17:18;;;;;;;99.37;45.80;;;;;;;5.80;100.00;99623.34;5033562;28;20113;-58
2021/11/16 00:19:44;;;;;;;104.87;45.57;;;;;;;5.85;100.00;99621.75;5036658;28;20079;-56
2021/11/16 00:22:16;;;;;;;106.20;44.77;;;;;;;5.86;100.00;99625.13;5036687;28;20244;-55
2021/11/16 00:24:56;;;;;;;105.83;45.67;;;;;;;5.84;100.00;99625.13;5032859;28;20044;-56
2021/11/16 00:27:22;;;;;;;101.47;44.37;;;;;;;5.98;100.00;99617.72;5035238;28;20057;-55
2021/11/16 00:29:47;;;;;;;111.27;46.60;;;;;;;5.87;100.00;99614.16;5031319;28;20034;-57
2021/11/16 00:32:13;;;;;;;105.70;44.83;;;;;;;5.94;100.00;99610.88;5034498;28;20471;-53
2021/11/16 00:34:38;;;;;;;109.50;47.73;;;;;;;5.91;100.00;99614.22;5033351;28;20032;-53
2021/11/16 00:37:04;;;;;;;110.10;48.13;;;;;;;5.95;100.00;99610.88;5034366;28;20037;-56
2021/11/16 00:39:29;;;;;;;101.20;46.03;;;;;;;5.92;100.00;99608.31;5031330;28;20033;-57
2021/11/16 00:41:55;;;;;;;102.27;43.07;;;;;;;5.89;100.00;99607.41;5038841;28;20045;-54
2021/11/16 00:44:20;;;;;;;103.63;47.17;;;;;;;5.88;100.00;99610.78;5036735;28;20099;-56
2021/11/16 00:46:45;;;;;;;102.93;46.40;;;;;;;5.77;100.00;99607.19;5038675;28;20140;-57
2021/11/16 00:49:12;;;;;;;106.47;47.20;;;;;;;5.88;100.00;99605.69;5030524;28;20045;-56
2021/11/16 00:51:37;;;;;;;99.67;43.70;;;;;;;5.72;100.00;99601.16;5035029;28;20409;-56
2021/11/16 00:54:03;;;;;;;102.60;45.93;;;;;;;5.70;100.00;99590.94;5035701;28;20537;-56
2021/11/16 00:56:28;;;;;;;98.03;43.83;;;;;;;5.66;100.00;99591.75;5036264;28;20033;-57
2021/11/16 00:58:54;;;;;;;99.80;42.20;;;;;;;5.60;100.00;99589.09;5035253;28;20032;-56
2021/11/16 01:01:19;;;;;;;97.83;44.30;;;;;;;5.61;100.00;99587.41;5039422;28;20067;-56
2021/11/16 01:03:45;;;;;;;99.03;45.90;;;;;;;5.58;100.00;99590.75;5039359;28;20034;-56
2021/11/16 01:06:11;;;;;;;96.60;43.77;;;;;;;5.50;100.00;99593.19;5035332;28;20036;-57
2021/11/16 01:08:36;;;;;;;98.13;44.83;;;;;;;5.48;100.00;99591.44;5035523;28;20025;-55
2021/11/16 01:11:02;;;;;;;103.10;46.57;;;;;;;5.45;100.00;99589.72;5039581;28;20042;-53
2021/11/16 01:13:28;;;;;;;100.03;45.07;;;;;;;5.36;100.00;99587.00;5039097;28;20080;-56
2021/11/16 01:15:55;;;;;;;100.93;45.17;;;;;;;5.31;100.00;99590.28;5034014;28;20033;-54
2021/11/16 01:18:23;;;;;;;97.80;42.60;;;;;;;5.32;100.00;99585.25;5036567;28;20025;-52
2021/11/16 01:20:49;;;;;;;104.33;45.80;;;;;;;5.25;100.00;99587.66;5037991;28;20046;-56
2021/11/16 01:23:14;;;;;;;109.07;47.83;;;;;;;5.21;100.00;99581.66;5039553;28;20505;-57
2021/11/16 01:25:44;;;;;;;103.10;45.63;;;;;;;5.26;100.00;99592.75;5039170;28;20029;-57
2021/11/16 01:28:12;;;;;;;109.50;46.43;;;;;;;5.26;100.00;99592.75;5042064;28;20031;-57
2021/11/16 01:30:48;;;;;;;115.40;48.57;;;;;;;5.26;100.00;99597.00;5038032;28;20065;-57
2021/11/16 01:33:18;;;;;;;109.90;47.73;;;;;;;5.32;100.00;99586.94;5038489;28;20029;-53
2021/11/16 01:35:45;;;;;;;119.80;51.50;;;;;;;5.35;100.00;99595.47;5034738;28;20566;-55
2021/11/16 01:38:13;;;;;;;119.27;49.57;;;;;;;5.43;100.00;99593.06;5033895;28;20025;-56
2021/11/16 01:40:40;;;;;;;126.80;52.30;;;;;;;5.40;100.00;99600.63;5035710;28;20033;-56
2021/11/16 01:43:10;;;;;;;121.20;48.50;;;;;;;5.48;100.00;99597.38;5036748;28;20053;-56
2021/11/16 01:45:37;;;;;;;112.37;49.63;;;;;;;5.49;100.00;99595.69;5035352;28;20080;-56
2021/11/16 01:48:02;;;;;;;125.47;49.00;;;;;;;5.52;100.00;99590.66;5038207;28;20434;-53
2021/11/16 01:50:28;;;;;;;129.70;53.03;;;;;;;5.39;100.00;99584.50;5036580;28;20059;-56
2021/11/16 01:52:54;;;;;;;115.83;52.13;;;;;;;5.47;100.00;99590.56;5037356;28;20033;-56
2021/11/16 01:55:23;;;;;;;119.20;52.83;;;;;;;5.55;100.00;99595.81;5036275;28;20021;-56
2021/11/16 01:57:51;;;;;;;117.50;49.57;;;;;;;5.53;100.00;99593.22;5041842;28;20041;-56
2021/11/16 02:00:21;;;;;;;124.07;51.60;;;;;;;5.56;100.00;99594.13;5040077;28;20079;-60
2021/11/16 02:02:46;;;;;;;109.27;49.87;;;;;;;5.57;100.00;99578.00;5035707;28;20087;-60
2021/11/16 02:05:12;;;;;;;108.20;45.17;;;;;;;5.66;100.00;99583.25;5038184;28;20033;-59
2021/11/16 02:07:42;;;;;;;107.37;47.40;;;;;;;5.66;100.00;99581.56;5037890;28;20040;-60
2021/11/16 02:10:08;;;;;;;112.87;48.90;;;;;;;5.68;100.00;99586.69;5038381;28;20021;-60
2021/11/16 02:12:33;;;;;;;109.10;48.10;;;;;;;5.66;100.00;99586.66;5034075;28;20048;-60
2021/11/16 02:14:59;;;;;;;108.13;49.40;;;;;;;5.65;100.00;99584.06;5034059;28;20034;-59
2021/11/16 02:17:24;;;;;;;109.23;46.47;;;;;;;5.69;100.00;99580.75;5041843;28;20472;-59
2021/11/16 02:19:50;;;;;;;105.43;48.50;;;;;;;5.72;100.00;99575.72;5037665;28;20386;-60
2021/11/16 02:22:16;;;;;;;106.63;47.63;;;;;;;5.73;100.00;99577.44;5037932;28;20467;-61
2021/11/16 02:24:42;;;;;;;96.33;43.73;;;;;;;5.75;100.00;99574.09;5038466;28;20037;-59
2021/11/16 02:27:08;;;;;;;111.03;46.83;;;;;;;5.75;100.00;99569.00;5036542;28;20118;-61
2021/11/16 02:29:33;;;;;;;107.77;47.83;;;;;;;5.81;100.00;99570.78;5038168;28;20075;-60
2021/11/16 02:31:58;;;;;;;105.93;45.83;;;;;;;5.87;100.00;99570.88;5035767;28;20071;-60
2021/11/16 02:34:24;;;;;;;95.20;45.73;;;;;;;5.90;100.00;99576.00;5032721;28;20025;-60
2021/11/16 02:36:50;;;;;;;106.10;45.67;;;;;;;5.86;100.00;99564.94;5037634;28;20037;-61
2021/11/16 02:39:16;;;;;;;97.20;45.90;;;;;;;5.89;100.00;99559.91;5043707;28;20131;-59
2021/11/16 02:41:52;;;;;;;97.93;45.67;;;;;;;5.96;100.00;99560.84;5036251;28;20399;-59
2021/11/16 02:44:19;;;;;;;107.47;48.93;;;;;;;5.88;100.00;99558.19;5038861;28;20080;-59
2021/11/16 02:46:49;;;;;;;106.13;45.80;;;;;;;5.92;100.00;99541.28;5038985;28;20064;-58
2021/11/16 02:49:16;;;;;;;101.67;45.33;;;;;;;5.95;100.00;99546.41;5036475;28;20041;-60
2021/11/16 02:51:42;;;;;;;107.67;48.93;;;;;;;5.92;100.00;99546.38;5032903;28;20040;-59
2021/11/16 02:54:27;;;;;;;113.80;47.90;;;;;;;6.00;100.00;99549.88;5034990;28;20025;-59
2021/11/16 02:56:53;;;;;;;104.10;46.58;;;;;;;5.90;100.00;99545.47;5040787;28;20131;-59
2021/11/16 02:59:19;;;;;;;110.97;47.47;;;;;;;5.87;100.00;99550.53;5035071;28;20066;-60
2021/11/16 03:01:44;;;;;;;98.43;46.80;;;;;;;5.85;100.00;99562.38;5034747;28;20514;-60
2021/11/16 03:04:10;;;;;;;109.97;48.00;;;;;;;5.87;100.00;99559.03;5035965;28;20033;-59
2021/11/16 03:06:35;;;;;;;113.17;49.13;;;;;;;5.88;100.00;99557.34;5039169;28;20368;-60
2021/11/16 03:09:01;;;;;;;102.73;46.97;;;;;;;5.83;100.00;99558.91;5033926;28;20033;-59
2021/11/16 03:11:26;;;;;;;103.20;48.77;;;;;;;5.88;100.00;99562.44;5032851;28;20037;-59
2021/11/16 03:13:52;;;;;;;106.53;47.30;;;;;;;5.89;100.00;99557.38;5037155;28;20399;-59
2021/11/16 03:16:21;;;;;;;90.73;44.27;;;;;;;5.89;100.00;99557.38;5035910;28;20486;-60
2021/11/16 03:18:49;;;;;;;105.57;47.73;;;;;;;5.89;100.00;99559.91;5031804;28;20037;-60
2021/11/16 03:21:19;;;;;;;103.60;46.13;;;;;;;5.92;100.00;99559.94;5032396;28;20148;-59
2021/11/16 03:23:49;;;;;;;99.40;47.30;;;;;;;5.89;100.00;99559.06;5044980;28;20029;-59
2021/11/16 03:26:15;;;;;;;109.33;47.97;;;;;;;5.82;100.00;99560.59;5038769;28;20325;-59
2021/11/16 03:28:45;;;;;;;103.87;47.70;;;;;;;5.81;100.00;99553.78;5034258;28;20029;-59
2021/11/16 03:31:20;;;;;;;113.70;49.60;;;;;;;5.85;100.00;99559.81;5035605;28;20025;-60
2021/11/16 03:33:46;;;;;;;;;;;;;;;5.87;100.00;99553.06;5040858;28;20028;-59
2021/11/16 03:36:12;;;;;;;103.63;46.10;;;;;;;5.83;100.00;99549.59;5040259;28;20236;-60
2021/11/16 03:38:40;;;;;;;100.90;47.20;;;;;;;5.82;100.00;99550.44;5037643;28;20037;-59
2021/11/16 03:41:05;;;;;;;100.23;44.33;;;;;;;5.77;100.00;99541.03;5035574;28;20375;-60
2021/11/16 03:43:33;;;;;;;96.50;45.83;;;;;;;5.76;100.00;99547.81;5037659;28;20060;-60
2021/11/16 03:45:59;;;;;;;106.90;47.43;;;;;;;5.75;100.00;99542.69;5036229;28;20534;-59
2021/11/16 03:48:25;;;;;;;102.87;48.43;;;;;;;5.82;100.00;99550.44;5036854;28;20036;-59
2021/11/16 03:50:51;;;;;;;101.03;46.70;;;;;;;5.85;100.00;99547.94;5036441;28;20067;-60
2021/11/16 03:53:16;;;;;;;117.73;50.73;;;;;;;5.84;100.00;99548.78;5037414;28;20053;-59
2021/11/16 03:55:44;;;;;;;112.27;50.30;;;;;;;5.93;100.00;99545.53;5039483;28;20033;-60
2021/11/16 03:58:14;;;;;;;104.23;51.07;;;;;;;5.96;100.00;99543.03;5039787;28;20033;-59
2021/11/16 04:00:45;;;;;;;110.77;50.47;;;;;;;5.94;100.00;99535.38;5043771;28;20040;-57
2021/11/16 04:03:10;;;;;;;100.17;47.67;;;;;;;5.93;100.00;99537.91;5037677;28;20040;-59
2021/11/16 04:05:37;;;;;;;98.30;46.37;;;;;;;5.88;100.00;99534.44;5036626;28;20029;-59
2021/11/16 04:08:03;;;;;;;102.13;47.80;;;;;;;5.92;100.00;99536.19;5038841;28;20033;-58
2021/11/16 04:10:30;;;;;;;107.70;49.53;;;;;;;5.80;100.00;99539.38;5045384;28;20022;-59
2021/11/16 04:12:55;;;;;;;97.73;46.83;;;;;;;5.80;100.00;99529.22;5038766;28;20041;-59
2021/11/16 04:15:23;;;;;;;96.37;45.63;;;;;;;5.87;100.00;99525.09;5037766;28;20483;-58
2021/11/16 04:17:51;;;;;;;105.27;46.27;;;;;;;5.82;100.00;99526.66;5037467;28;20034;-59
2021/11/16 04:20:38;;;;;;;102.70;47.07;;;;;;;5.85;100.00;99529.28;5039946;28;20024;-60
2021/11/16 04:23:06;;;;;;;106.13;47.30;;;;;;;5.92;100.00;99533.66;5039618;28;20531;-57
2021/11/16 04:25:33;;;;;;;89.03;44.40;;;;;;;5.93;100.00;99528.59;5035180;28;20051;-60
2021/11/16 04:28:01;;;;;;;96.40;45.67;;;;;;;5.91;100.00;99530.25;5036503;28;20040;-60
2021/11/16 04:30:28;;;;;;;97.77;47.50;;;;;;;5.86;100.00;99518.25;5043242;28;20029;-58
2021/11/16 04:32:54;;;;;;;96.70;45.40;;;;;;;5.82;100.00;99519.03;5042285;28;20033;-59
2021/11/16 04:35:19;;;;;;;100.40;44.30;;;;;;;5.82;100.00;99516.50;5038488;28;20091;-59
2021/11/16 04:37:48;;;;;;;111.03;47.17;;;;;;;5.81;100.00;99513.09;5036607;28;20024;-60
2021/11/16 04:40:17;;;;;;;99.43;46.90;;;;;;;5.83;100.00;99513.13;5037658;28;20030;-59
2021/11/16 04:42:43;;;;;;;102.70;47.97;;;;;;;5.78;100.00;99507.09;5037436;28;20038;-60
2021/11/16 04:45:13;;;;;;;101.10;47.77;;;;;;;5.83;100.00;99513.13;5036960;28;20036;-60
2021/11/16 04:47:48;;;;;;;95.83;47.10;;;;;;;5.83;100.00;99508.91;5036363;28;20034;-60
2021/11/16 04:50:26;;;;;;;106.50;45.17;;;;;;;5.77;100.00;99506.25;5039641;28;20109;-59
2021/11/16 04:55:28;;;;;;;92.73;45.63;;;;;;;5.87;100.00;99504.72;5037324;28;20498;-60
2021/11/16 05:03:21;;;;;;;96.80;45.80;;;;;;;5.75;100.00;99512.16;5035801;28;20067;-60
2021/11/16 05:05:47;;;;;;;86.77;43.47;;;;;;;5.72;100.00;99507.91;5036601;28;20120;-60
2021/11/16 05:08:14;;;;;;;88.83;43.50;;;;;;;5.72;100.00;99509.59;5039108;28;20029;-60
2021/11/16 05:10:40;;;;;;;84.83;42.37;;;;;;;5.66;100.00;99514.56;5043047;28;20029;-60
2021/11/16 05:13:06;;;;;;;87.20;41.43;;;;;;;5.50;100.00;99521.13;5038882;28;20452;-60
2021/11/16 05:15:34;;;;;;;84.33;41.87;;;;;;;5.46;100.00;99516.81;5041225;28;20041;-60
2021/11/16 05:18:00;;;;;;;85.53;41.00;;;;;;;5.36;100.00;99520.03;5037187;28;20034;-59
2021/11/16 05:20:25;;;;;;;85.60;42.97;;;;;;;5.33;100.00;99527.63;5037340;28;20076;-62
2021/11/16 05:22:53;;;;;;;86.67;41.50;;;;;;;5.32;100.00;99526.75;5034472;28;20139;-59
2021/11/16 05:25:19;;;;;;;88.70;41.30;;;;;;;5.26;100.00;99529.19;5040043;28;20098;-60
2021/11/16 05:27:45;;;;;;;78.87;42.20;;;;;;;5.20;100.00;99521.50;5039417;28;20052;-61
2021/11/16 05:30:13;;;;;;;81.23;40.23;;;;;;;5.23;100.00;99523.22;5035244;28;20486;-62
2021/11/16 05:32:40;;;;;;;95.20;40.43;;;;;;;5.18;100.00;99522.31;5032144;28;20029;-60
2021/11/16 05:35:07;;;;;;;90.63;40.40;;;;;;;5.13;100.00;99511.19;5043268;28;20064;-61
2021/11/16 05:37:33;;;;;;;98.97;42.27;;;;;;;5.16;100.00;99512.09;5042332;28;20029;-61
2021/11/16 05:39:59;;;;;;;81.27;40.37;;;;;;;5.16;100.00;99526.50;5034641;28;20045;-60
2021/11/16 05:42:25;;;;;;;76.10;39.80;;;;;;;5.21;100.00;99524.88;5038183;28;20025;-57
2021/11/16 05:44:52;;;;;;;81.00;36.57;;;;;;;5.12;100.00;99522.19;5041210;28;20167;-60
2021/11/16 05:47:18;;;;;;;77.73;38.63;;;;;;;5.07;100.00;99524.66;5037070;28;20029;-60
2021/11/16 05:49:44;;;;;;;87.10;40.87;;;;;;;5.10;100.00;99526.38;5034061;28;20456;-59
2021/11/16 05:52:09;;;;;;;87.00;41.17;;;;;;;5.03;100.00;99530.50;5038507;28;20118;-60
2021/11/16 05:54:35;;;;;;;86.97;41.10;;;;;;;5.08;100.00;99531.44;5038294;28;20029;-59
2021/11/16 05:57:09;;;;;;;98.00;45.40;;;;;;;5.02;100.00;99526.25;5041623;28;20048;-61
2021/11/16 05:59:36;;;;;;;92.53;43.33;;;;;;;5.03;100.00;99535.59;5037543;28;20038;-61
2021/11/16 06:02:07;;;;;;;93.03;44.17;;;;;;;5.05;100.00;99533.91;5037834;28;20029;-62
2021/11/16 06:04:33;;;;;;;88.90;40.53;;;;;;;5.05;100.00;99532.22;5038541;28;20058;-60
2021/11/16 06:06:59;;;;;;;94.30;42.40;;;;;;;5.06;100.00;99533.09;5036783;28;20440;-60
2021/11/16 06:09:26;;;;;;;87.43;43.20;;;;;;;5.09;100.00;99533.16;5038774;28;20034;-57
2021/11/16 06:11:54;;;;;;;101.27;44.67;;;;;;;5.03;100.00;99536.44;5038786;28;20091;-56
2021/11/16 06:14:19;;;;;;;96.00;43.13;;;;;;;5.09;100.00;99542.47;5037383;28;20041;-59
2021/11/16 06:16:45;;;;;;;100.53;44.23;;;;;;;5.08;100.00;99534.00;5035098;28;20034;-61
2021/11/16 06:19:10;;;;;;;92.57;43.87;;;;;;;5.14;100.00;99540.84;5033601;28;20025;-58
2021/11/16 06:21:36;;;;;;;93.33;43.17;;;;;;;5.14;100.00;99541.69;5034199;28;20037;-59
2021/11/16 06:24:02;;;;;;;97.60;45.87;;;;;;;5.10;100.00;99528.91;5036674;28;20075;-61
2021/11/16 06:26:32;;;;;;;95.53;45.13;;;;;;;5.12;100.00;99538.28;5036294;28;20459;-60
2021/11/16 06:28:57;;;;;;;91.13;43.63;;;;;;;5.12;100.00;99537.44;5033253;28;20098;-60
2021/11/16 06:31:26;;;;;;;96.63;43.27;;;;;;;5.06;100.00;99540.72;5033507;28;20028;-61
2021/11/16 06:33:52;;;;;;;106.00;46.50;;;;;;;5.17;100.00;99536.69;5036097;28;20045;-61
2021/11/16 06:36:17;;;;;;;100.30;45.63;;;;;;;5.14;100.00;99539.16;5035251;28;20075;-61
2021/11/16 06:38:43;;;;;;;99.53;45.03;;;;;;;5.23;100.00;99541.88;5033875;28;20033;-60
2021/11/16 06:41:08;;;;;;;107.93;48.33;;;;;;;5.28;100.00;99539.41;5036614;28;20116;-60
2021/11/16 06:43:35;;;;;;;98.93;45.23;;;;;;;5.32;100.00;99531.00;5035401;28;20061;-61
2021/11/16 06:46:03;;;;;;;99.40;48.50;;;;;;;5.32;100.00;99526.75;5034136;28;20087;-61
2021/11/16 06:48:29;;;;;;;108.40;49.20;;;;;;;5.36;100.00;99528.53;5033394;28;20667;-60
2021/11/16 06:50:57;;;;;;;98.77;48.80;;;;;;;5.44;100.00;99534.59;5035315;28;20033;-59
2021/11/16 06:53:31;;;;;;;106.77;45.00;;;;;;;5.59;100.00;99538.22;5036241;28;20044;-60
2021/11/16 06:55:58;;;;;;;98.93;47.93;;;;;;;5.65;100.00;99539.16;5033526;28;20093;-59
2021/11/16 06:58:24;;;;;;;96.80;46.70;;;;;;;5.70;100.00;99539.22;5032074;28;20029;-59
2021/11/16 07:00:50;;;;;;;93.83;44.83;;;;;;;5.77;100.00;99541.03;5042260;28;20037;-59
2021/11/16 07:03:25;;;;;;;88.70;43.03;;;;;;;5.86;100.00;99541.16;5036880;28;20025;-57
2021/11/16 07:05:56;;;;;;;90.63;43.60;;;;;;;5.82;100.00;99541.94;5035171;28;20091;-59
2021/11/16 07:08:36;;;;;;;77.17;39.83;;;;;;;5.84;100.00;99525.88;5036190;28;20082;-60
2021/11/16 07:11:12;;;;;;;83.33;38.60;;;;;;;6.03;100.00;99534.63;5040685;28;20067;-60
2021/11/16 07:13:54;;;;;;;83.53;38.57;;;;;;;6.15;100.00;99533.97;5033661;28;20407;-59
2021/11/16 07:16:20;;;;;;;68.40;36.67;;;;;;;6.20;100.00;99534.84;5039490;28;20035;-57
2021/11/16 07:18:51;;;;;;;73.00;37.23;;;;;;;6.28;100.00;99539.22;5035830;28;20384;-59
2021/11/16 07:21:18;;;;;;;65.10;36.07;;;;;;;6.37;100.00;99529.13;5036183;28;20029;-56
2021/11/16 07:23:44;;;;;;;66.37;36.53;;;;;;;6.42;100.00;99534.28;5034009;28;20041;-58
2021/11/16 07:26:16;;;;;;;59.17;34.10;;;;;;;6.58;100.00;99536.19;5033758;28;20151;-59
2021/11/16 07:28:50;;;;;;;63.47;33.30;;;;;;;6.72;100.00;99533.78;5037839;28;20033;-60
2021/11/16 07:31:17;;;;;;;54.47;31.73;;;;;;;6.92;100.00;99532.28;5034647;28;20387;-61
2021/11/16 07:33:43;;;;;;;54.57;33.40;;;;;;;7.07;100.00;99526.50;5031892;28;20033;-59
2021/11/16 07:36:09;;;;;;;52.33;30.17;;;;;;;7.14;100.00;99520.59;5039171;28;20029;-60
2021/11/16 07:38:35;;;;;;;51.83;29.63;;;;;;;7.20;100.00;99523.22;5039913;28;20127;-62
2021/11/16 07:41:00;;;;;;;46.43;27.40;;;;;;;7.30;100.00;99522.44;5035689;28;20376;-62
2021/11/16 07:43:28;;;;;;;41.20;24.17;;;;;;;7.50;100.00;99522.63;5033451;28;20053;-60
2021/11/16 07:45:55;;;;;;;41.37;24.57;;;;;;;7.50;100.00;99527.72;5033855;28;20478;-60
2021/11/16 07:48:23;;;;;;;41.20;23.43;;;;;;;7.53;100.00;99523.50;5035863;28;20032;-58
2021/11/16 07:50:53;;;;;;;31.73;20.03;;;;;;;7.67;100.00;99523.59;5035340;28;20029;-62
2021/11/16 07:53:40;;;;;;;28.37;19.20;;;;;;;7.75;100.00;99529.59;5033066;28;20048;-62
2021/11/16 07:56:21;;;;;;;28.50;18.93;;;;;;;7.76;100.00;99514.31;5032519;28;20071;-61
2021/11/16 07:59:01;;;;;;;29.33;17.87;;;;;;;7.65;100.00;99517.63;5035428;28;20018;-61
2021/11/16 08:01:56;;;;;;;23.87;16.17;;;;;;;7.79;100.00;99516.03;5034165;28;20033;-62
2021/11/16 08:07:24;;;;;;;23.23;15.63;;;;;;;8.06;100.00;99520.44;5034204;28;20040;-62
2021/11/16 08:09:42;;;;;;;23.00;13.90;;;;;;;8.28;100.00;99519.66;5033606;28;20048;-61
2021/11/16 08:14:36;;;;;;;24.43;15.17;;;;;;;8.35;100.00;99510.38;5034336;28;20041;-62
2021/11/16 08:17:06;;;;;;;21.73;13.70;;;;;;;8.43;100.00;99524.03;5034952;28;20387;-62
2021/11/16 08:19:34;;;;;;;22.20;13.97;;;;;;;8.46;100.00;99521.50;5039452;28;20029;-61
2021/11/16 08:22:14;;;;;;;19.50;13.23;;;;;;;8.41;100.00;99516.34;5039260;28;20064;-61
2021/11/16 08:24:44;;;;;;;22.40;14.77;;;;;;;8.36;100.00;99517.22;5033490;28;20117;-61
2021/11/16 08:27:31;;;;;;;20.23;12.83;;;;;;;8.52;100.00;99518.97;5036737;28;20442;-61
2021/11/16 08:30:08;;;;;;;20.17;13.75;;;;;;;8.55;100.00;99519.81;5031266;28;20064;-61
2021/11/16 08:32:36;;;;;;;21.03;13.33;;;;;;;8.63;100.00;99510.47;5032785;28;20033;-61
2021/11/16 08:35:10;;;;;;;19.70;13.67;;;;;;;8.79;100.00;99513.91;5036068;28;20044;-61
2021/11/16 08:37:37;;;;;;;20.47;14.30;;;;;;;8.84;100.00;99517.34;5034337;28;20138;-60
2021/11/16 08:40:12;;;;;;;22.03;13.10;;;;;;;9.06;100.00;99505.44;5033818;28;20040;-59
2021/11/16 08:42:43;;;;;;;21.67;14.53;;;;;;;9.06;100.00;99511.41;5033819;28;20029;-62
2021/11/16 08:45:12;;;;;;;17.75;12.68;;;;;;;9.13;100.00;99512.25;5031858;28;20386;-62
2021/11/16 08:47:40;;;;;;;16.85;12.20;;;;;;;9.28;100.00;99517.41;5033135;28;20147;-62
2021/11/16 08:50:20;;;;;;;17.17;12.10;;;;;;;9.37;100.00;99514.00;5034456;28;20516;-62
2021/11/16 08:52:47;;;;;;;19.73;12.75;;;;;;;9.25;100.00;99514.81;5034185;28;20033;-64
2021/11/16 08:55:18;;;;;;;19.00;13.13;;;;;;;9.36;100.00;99520.81;5032410;28;20499;-63
2021/11/16 08:57:46;;;;;;;15.88;11.45;;;;;;;9.55;100.00;99507.16;5033008;28;20107;-63
2021/11/16 09:00:18;;;;;;;17.05;12.50;;;;;;;9.66;100.00;99508.84;5035748;28;20063;-63
2021/11/16 09:02:44;;;;;;;16.15;12.85;;;;;;;9.73;100.00;99511.41;5033891;28;20068;-62
2021/11/16 09:05:13;;;;;;;14.70;10.50;;;;;;;9.93;100.00;99509.66;5031929;28;20289;-63
2021/11/16 09:07:47;;;;;;;14.30;9.85;;;;;;;9.95;100.00;99507.94;5035204;28;20103;-63
2021/11/16 09:10:13;;;;;;;13.18;9.60;;;;;;;10.03;100.00;99513.91;5041354;28;20088;-62
2021/11/16 09:12:46;;;;;;;15.15;10.90;;;;;;;10.15;100.00;99515.59;5032471;28;20041;-62
2021/11/16 09:15:18;;;;;;;15.20;9.75;;;;;;;10.25;100.00;99508.75;5032013;28;20632;-61
2021/11/16 09:17:43;;;;;;;13.13;10.13;;;;;;;10.22;100.00;99517.31;5039111;28;20029;-57
2021/11/16 09:20:20;;;;;;;14.75;10.55;;;;;;;10.25;100.00;99527.53;5040367;28;20503;-61
2021/11/16 09:22:47;;;;;;;13.70;10.23;;;;;;;10.20;100.00;99513.88;5038857;28;20041;-59
2021/11/16 09:25:39;;;;;;;15.00;10.40;;;;;;;10.39;100.00;99512.97;5035193;28;20046;-62
2021/11/16 09:28:28;;;;;;;18.98;10.82;;;;;;;10.44;100.00;99513.78;5038418;28;20132;-60
2021/11/16 09:30:54;;;;;;;17.38;11.15;;;;;;;10.64;100.00;99508.56;5038423;28;20052;-62
2021/11/16 09:33:20;;;;;;;14.05;10.30;;;;;;;10.67;99.52;99512.81;5035334;28;20808;-62
2021/11/16 09:35:48;;;;;;;14.38;10.05;;;;;;;10.49;100.00;99511.19;5035980;28;20025;-62
2021/11/16 09:38:29;;;;;;;15.43;11.40;;;;;;;10.45;100.00;99515.50;5042556;28;20085;-62
2021/11/16 09:40:55;;;;;;;15.65;10.43;;;;;;;10.33;100.00;99507.00;5034728;28;20029;-62
2021/11/16 09:43:25;;;;;;;14.30;10.43;;;;;;;10.44;99.90;99500.09;5037737;28;20083;-62
2021/11/16 09:45:51;;;;;;;13.80;10.43;;;;;;;10.73;98.19;99502.53;5036153;28;20025;-61
2021/11/16 09:48:26;;;;;;;14.40;11.40;;;;;;;10.44;100.00;99497.53;5037702;28;20033;-60
2021/11/16 09:50:52;;;;;;;15.30;10.18;;;;;;;10.64;99.48;99500.03;5041668;28;20267;-61
2021/11/16 09:53:19;;;;;;;13.80;11.02;;;;;;;10.81;98.60;99488.81;5037864;28;20384;-61
2021/11/16 09:55:44;;;;;;;13.70;11.25;;;;;;;10.56;96.65;99494.09;5037879;28;20033;-61
2021/11/16 09:58:23;;;;;;;15.25;11.73;;;;;;;10.80;95.82;99484.53;5041167;28;20033;-60
2021/11/16 10:00:49;;;;;;;11.90;10.10;;;;;;;10.93;93.62;99491.28;5036670;28;20689;-59
2021/11/16 10:03:20;;;;;;;14.13;11.75;;;;;;;10.78;94.31;99477.69;5034235;28;20033;-58
2021/11/16 10:05:48;;;;;;;19.17;11.52;;;;;;;10.32;98.01;99483.06;5035104;28;20064;-58
2021/11/16 10:08:17;;;;;;;15.48;12.00;;;;;;;10.58;94.51;99485.50;5034433;28;20033;-59
2021/11/16 10:10:47;;;;;;;13.75;11.63;;;;;;;10.35;98.44;99471.97;5034259;28;20048;-60
2021/11/16 10:13:16;;;;;;;14.57;11.18;;;;;;;10.50;96.48;99471.88;5033420;28;20128;-59
2021/11/16 10:15:48;;;;;;;19.33;12.50;;;;;;;10.34;96.31;99476.25;5037618;28;20570;-60
2021/11/16 10:18:15;;;;;;;14.32;10.35;;;;;;;10.40;94.99;99475.34;5036225;28;20029;-60
2021/11/16 10:20:43;;;;;;;14.30;11.45;;;;;;;10.22;94.58;99470.31;5040632;28;20038;-56
2021/11/16 10:23:11;;;;;;;25.90;11.25;;;;;;;10.35;92.40;99454.88;5035630;28;20427;-58
2021/11/16 10:25:49;;;;;;;29.27;11.63;;;;;;;10.56;92.29;99458.19;5042923;28;20377;-60
2021/11/16 10:28:16;;;;;;;15.48;11.48;;;;;;;10.59;90.68;99465.84;5035970;28;20430;-59
2021/11/16 10:30:45;;;;;;;15.20;10.75;;;;;;;10.86;86.47;99456.25;5033620;28;20652;-58
2021/11/16 10:33:23;;;;;;;16.13;11.50;;;;;;;10.85;88.20;99448.59;5038247;28;20395;-58
2021/11/16 10:35:56;;;;;;;16.55;10.10;;;;;;;11.07;87.71;99445.03;5036250;28;20434;-58
2021/11/16 10:38:45;;;;;;;15.02;11.38;;;;;;;11.12;85.83;99438.09;5035286;28;20043;-60
2021/11/16 10:41:19;;;;;;;16.35;11.27;;;;;;;11.02;84.52;99427.94;5034297;28;20443;-59
2021/11/16 10:43:58;;;;;;;15.05;11.20;;;;;;;10.98;86.18;99420.28;5037370;28;20057;-59
2021/11/16 10:46:26;;;;;;;16.48;11.75;;;;;;;11.12;83.10;99415.00;5032858;28;20557;-62
2021/11/16 10:48:55;;;;;;;14.05;10.68;;;;;;;11.07;82.17;99421.06;5035320;28;20044;-62
2021/11/16 10:51:25;;;;;;;13.15;10.23;;;;;;;10.95;82.16;99411.72;5034375;28;20481;-61
2021/11/16 10:53:53;;;;;;;13.55;10.30;;;;;;;10.76;82.04;99417.88;5035106;28;20072;-60
2021/11/16 10:56:23;;;;;;;15.55;11.32;;;;;;;11.06;80.59;99416.78;5034374;28;20033;-61
2021/11/16 10:58:50;;;;;;;15.13;10.68;;;;;;;11.20;78.89;99412.41;5034584;28;20110;-61
2021/11/16 11:01:18;;;;;;;17.02;11.77;;;;;;;11.17;79.20;99415.81;5033919;28;20531;-61
2021/11/16 11:03:50;;;;;;;16.15;11.73;;;;;;;11.19;78.98;99416.69;5034565;28;20041;-62
2021/11/16 11:06:19;;;;;;;16.23;10.73;;;;;;;11.12;81.15;99407.31;5035310;28;20086;-59
2021/11/16 11:08:47;;;;;;;14.75;11.77;;;;;;;11.12;79.43;99404.75;5033108;28;20087;-58
2021/11/16 11:11:18;;;;;;;14.82;10.85;;;;;;;11.02;79.86;99405.72;5038165;28;20029;-59
2021/11/16 11:14:06;;;;;;;16.25;11.98;;;;;;;11.08;79.80;99391.94;5032876;28;20037;-60
2021/11/16 11:16:36;;;;;;;14.32;10.82;;;;;;;11.30;77.52;99385.75;5034742;28;20112;-62
2021/11/16 11:19:03;;;;;;;15.20;11.55;;;;;;;11.80;74.57;99383.53;5034728;28;20125;-60
2021/11/16 11:21:42;;;;;;;13.00;10.43;;;;;;;12.06;71.99;99384.94;5029819;28;20041;-61
2021/11/16 11:24:20;;;;;;;12.25;9.52;;;;;;;11.92;68.95;99381.69;5029851;28;20486;-62
2021/11/16 11:26:55;;;;;;;13.40;9.93;;;;;;;11.77;68.63;99382.72;5032311;28;20146;-62
2021/11/16 11:29:45;;;;;;;13.55;10.32;;;;;;;11.58;67.32;99376.06;5028261;28;20487;-61
2021/11/16 11:32:40;;;;;;;12.13;9.43;;;;;;;11.59;68.85;99370.03;5027692;28;20037;-62
2021/11/16 11:35:10;;;;;;;12.65;9.57;;;;;;;11.52;69.91;99382.13;5028968;28;20416;-61